createdAt,value
2023-05-01T00:04:58.716Z,21.80
2023-05-01T00:11:10.969Z,22.30
2023-05-01T00:16:35.180Z,25.30
2023-05-01T00:23:04.030Z,30.80
2023-05-01T00:29:26.206Z,33.70
2023-05-01T00:36:09.743Z,37.70
2023-05-01T00:43:02.076Z,42.80
2023-05-01T00:49:02.116Z,44.70
2023-05-01T00:55:08.103Z,36.20
2023-05-01T01:01:32.531Z,31.70
2023-05-01T01:07:33.075Z,30.00
2023-05-01T01:14:08.546Z,26.20
2023-05-01T01:21:05.536Z,20.50
2023-05-01T01:27:14.011Z,17.00
2023-05-01T01:33:17.097Z,17.90
2023-05-01T01:39:15.603Z,17.20
2023-05-01T01:44:42.638Z,24.40
2023-05-01T01:50:29.773Z,24.00
2023-05-01T01:56:35.901Z,25.00
2023-05-01T02:02:59.536Z,25.80
2023-05-01T02:09:41.446Z,30.90
2023-05-01T02:16:03.416Z,31.20
2023-05-01T02:22:17.799Z,29.70
2023-05-01T02:28:49.313Z,30.60
2023-05-01T02:34:13.844Z,26.20
2023-05-01T02:39:41.416Z,25.20
2023-05-01T02:45:49.342Z,24.40
2023-05-01T02:52:39.757Z,24.70
2023-05-01T02:59:04.560Z,22.80
2023-05-01T03:06:03.604Z,21.70
2023-05-01T03:12:50.655Z,20.50
2023-05-01T03:19:46.843Z,17.90
2023-05-01T03:26:29.754Z,17.60
2023-05-01T03:32:55.537Z,19.00
2023-05-01T03:39:46.285Z,18.50
2023-05-01T03:46:47.357Z,18.10
2023-05-01T03:53:50.297Z,17.90
2023-05-01T04:00:53.352Z,16.90
2023-05-01T04:07:08.764Z,18.50
2023-05-01T04:13:22.599Z,15.80
2023-05-01T04:20:25.120Z,18.80
2023-05-01T04:26:18.832Z,18.30
2023-05-01T04:31:57.454Z,19.50
2023-05-01T04:38:06.196Z,19.70
2023-05-01T04:44:15.047Z,19.50
2023-05-01T04:50:19.916Z,19.40
2023-05-01T04:56:23.423Z,16.30
2023-05-01T05:02:01.189Z,15.10
2023-05-01T05:08:15.112Z,14.70
2023-05-01T05:14:42.642Z,14.10
2023-05-01T05:20:28.474Z,14.20
2023-05-01T05:26:54.675Z,14.70
2023-05-01T05:32:34.983Z,14.80
2023-05-01T05:38:04.971Z,15.70
2023-05-01T05:43:44.863Z,14.20
2023-05-01T05:48:49.998Z,13.90
2023-05-01T05:54:56.964Z,13.00
2023-05-01T06:01:24.452Z,13.90
2023-05-01T06:07:52.683Z,11.70
2023-05-01T06:14:07.215Z,11.70
2023-05-01T06:19:15.630Z,10.90
2023-05-01T06:25:28.458Z,8.80
2023-05-01T06:32:09.550Z,9.80
2023-05-01T06:38:33.561Z,8.40
2023-05-01T06:44:58.719Z,6.30
2023-05-01T06:51:40.916Z,5.60
2023-05-01T06:58:06.945Z,5.80
2023-05-01T07:04:38.496Z,6.90
2023-05-01T07:10:02.909Z,6.80
2023-05-01T07:15:22.992Z,6.60
2023-05-01T07:21:28.083Z,6.60
2023-05-01T07:28:10.083Z,5.60
2023-05-01T07:34:34.576Z,6.20
2023-05-01T07:41:03.387Z,6.70
2023-05-01T07:47:28.224Z,5.30
2023-05-01T07:54:31.217Z,5.70
2023-05-01T08:01:29.636Z,6.10
2023-05-01T08:07:20.993Z,4.30
2023-05-01T08:12:38.949Z,5.40
2023-05-01T08:17:50.721Z,4.80
2023-05-01T08:23:07.334Z,5.30
2023-05-01T08:29:08.910Z,4.70
2023-05-01T08:35:30.675Z,4.70
2023-05-01T08:42:00.553Z,4.60
2023-05-01T08:48:38.204Z,4.30
2023-05-01T08:54:59.344Z,4.80
2023-05-01T09:01:20.547Z,4.50
2023-05-01T09:06:44.378Z,3.60
2023-05-01T09:18:00.239Z,4.00
2023-05-01T09:24:23.733Z,4.20
2023-05-01T09:29:51.204Z,4.30
2023-05-01T09:35:14.320Z,4.00
2023-05-01T09:40:35.337Z,3.50
2023-05-01T09:45:39.667Z,3.70
2023-05-01T09:56:07.656Z,4.10
2023-05-01T10:01:09.731Z,4.00
2023-05-01T10:06:11.737Z,3.30
2023-05-01T10:11:30.846Z,3.50
2023-05-01T10:17:22.428Z,3.70
2023-05-01T10:23:24.029Z,3.80
2023-05-01T10:29:48.604Z,3.50
2023-05-01T10:35:14.666Z,3.30
2023-05-01T10:40:45.289Z,2.90
2023-05-01T10:45:48.180Z,3.20
2023-05-01T10:51:11.548Z,3.40
2023-05-01T10:56:47.436Z,3.30
2023-05-01T11:01:52.771Z,3.60
2023-05-01T11:07:17.372Z,3.40
2023-05-01T11:13:02.560Z,3.20
2023-05-01T11:18:07.360Z,3.10
2023-05-01T11:28:20.156Z,3.00
2023-05-01T11:33:26.893Z,2.60
2023-05-01T11:38:55.869Z,3.10
2023-05-01T11:44:36.929Z,2.20
2023-05-01T11:49:57.255Z,2.50
2023-05-01T11:55:10.889Z,2.10
2023-05-01T12:00:37.338Z,2.40
2023-05-01T12:05:42.068Z,2.30
2023-05-01T12:10:49.515Z,3.00
2023-05-01T12:15:55.679Z,2.80
2023-05-01T12:20:58.247Z,2.70
2023-05-01T12:26:00.342Z,2.80
2023-05-01T12:32:01.765Z,2.80
2023-05-01T12:37:43.294Z,2.60
2023-05-01T12:42:54.525Z,3.30
2023-05-01T12:48:00.031Z,2.70
2023-05-01T12:53:07.307Z,3.00
2023-05-01T12:58:57.760Z,3.50
2023-05-01T13:04:32.844Z,3.00
2023-05-01T13:09:51.800Z,3.00
2023-05-01T13:15:21.663Z,2.90
2023-05-01T13:20:27.535Z,2.90
2023-05-01T13:25:32.811Z,2.60
2023-05-01T13:30:37.211Z,3.10
2023-05-01T13:35:39.237Z,3.40
2023-05-01T13:41:41.472Z,3.00
2023-05-01T13:48:03.105Z,3.30
2023-05-01T13:54:24.424Z,3.20
2023-05-01T14:00:45.814Z,3.40
2023-05-01T14:07:06.826Z,3.20
2023-05-01T14:13:28.136Z,3.40
2023-05-01T14:20:01.375Z,3.50
2023-05-01T14:26:25.627Z,3.50
2023-05-01T14:31:51.996Z,3.30
2023-05-01T14:36:55.281Z,3.50
2023-05-01T14:42:11.089Z,3.50
2023-05-01T14:47:20.806Z,3.90
2023-05-01T14:52:30.893Z,4.20
2023-05-01T14:57:42.135Z,3.90
2023-05-01T15:02:43.875Z,3.80
2023-05-01T15:08:00.028Z,3.80
2023-05-01T15:13:20.667Z,3.90
2023-05-01T15:18:27.500Z,3.70
2023-05-01T15:23:30.638Z,3.60
2023-05-01T15:28:34.632Z,3.60
2023-05-01T15:34:42.655Z,4.00
2023-05-01T15:41:04.258Z,4.10
2023-05-01T15:47:34.534Z,3.90
2023-05-01T15:54:00.385Z,4.00
2023-05-01T16:00:21.372Z,4.10
2023-05-01T16:06:46.198Z,4.10
2023-05-01T16:13:07.409Z,3.90
2023-05-01T16:19:29.101Z,4.40
2023-05-01T16:24:50.638Z,3.90
2023-05-01T16:30:16.649Z,4.50
2023-05-01T16:35:35.775Z,4.40
2023-05-01T16:41:23.972Z,3.80
2023-05-01T16:46:48.109Z,4.00
2023-05-01T16:52:43.938Z,4.50
2023-05-01T16:58:28.559Z,4.70
2023-05-01T17:03:45.263Z,3.90
2023-05-01T17:08:47.773Z,3.70
2023-05-01T17:13:52.189Z,4.70
2023-05-01T17:19:19.250Z,4.00
2023-05-01T17:24:21.943Z,4.40
2023-05-01T17:29:33.916Z,4.90
2023-05-01T17:34:38.895Z,5.30
2023-05-01T17:39:40.810Z,4.60
2023-05-01T17:44:44.957Z,6.30
2023-05-01T17:49:46.806Z,5.20
2023-05-01T17:55:17.975Z,5.30
2023-05-01T18:00:22.655Z,6.80
2023-05-01T18:05:38.962Z,10.80
2023-05-01T18:10:55.269Z,9.10
2023-05-01T18:16:40.925Z,8.00
2023-05-01T18:21:43.232Z,7.70
2023-05-01T18:27:05.494Z,9.20
2023-05-01T18:32:19.461Z,9.00
2023-05-01T18:37:22.660Z,9.20
2023-05-01T18:42:26.814Z,9.60
2023-05-01T18:47:34.263Z,11.00
2023-05-01T18:52:36.666Z,17.00
2023-05-01T18:57:41.174Z,18.50
2023-05-01T19:02:53.213Z,16.00
2023-05-01T19:08:09.081Z,12.00
2023-05-01T19:13:16.054Z,11.60
2023-05-01T19:18:50.632Z,12.50
2023-05-01T19:24:07.624Z,10.90
2023-05-01T19:29:09.649Z,11.70
2023-05-01T19:34:17.494Z,12.50
2023-05-01T19:39:22.646Z,12.70
2023-05-01T19:45:17.077Z,12.00
2023-05-01T19:50:36.389Z,15.00
2023-05-01T19:56:50.890Z,15.40
2023-05-01T20:03:12.009Z,15.00
2023-05-01T20:09:33.313Z,15.10
2023-05-01T20:15:54.376Z,14.30
2023-05-01T20:22:15.427Z,16.20
2023-05-01T20:28:36.449Z,14.10
2023-05-01T20:34:57.628Z,16.00
2023-05-01T20:41:18.679Z,17.00
2023-05-01T20:47:39.809Z,15.50
2023-05-01T20:53:01.125Z,16.20
2023-05-01T20:58:02.904Z,16.00
2023-05-01T21:03:04.471Z,15.00
2023-05-01T21:08:06.202Z,13.20
2023-05-01T21:13:11.678Z,10.90
2023-05-01T21:18:14.982Z,13.20
2023-05-01T21:23:17.017Z,12.60
2023-05-01T21:28:18.478Z,11.60
2023-05-01T21:33:19.997Z,13.30
2023-05-01T21:38:21.432Z,13.10
2023-05-01T21:43:23.554Z,12.90
2023-05-01T21:48:32.360Z,12.50
2023-05-01T21:53:33.805Z,12.50
2023-05-01T21:58:35.471Z,12.10
2023-05-01T22:03:40.923Z,11.70
2023-05-01T22:08:42.452Z,12.70
2023-05-01T22:14:47.451Z,17.60
2023-05-01T22:21:08.606Z,22.40
2023-05-01T22:27:29.818Z,18.90
2023-05-01T22:33:50.803Z,17.90
2023-05-01T22:39:12.112Z,16.80
2023-05-01T22:44:13.739Z,18.40
2023-05-01T22:49:15.070Z,18.60
2023-05-01T22:54:16.489Z,15.50
2023-05-01T22:59:18.468Z,15.90
2023-05-01T23:04:19.972Z,14.00
2023-05-01T23:09:22.138Z,14.50
2023-05-01T23:14:27.150Z,15.10
2023-05-01T23:19:28.627Z,13.80
2023-05-01T23:24:37.785Z,15.70
2023-05-01T23:29:40.213Z,15.50
2023-05-01T23:34:43.272Z,15.30
2023-05-01T23:39:45.578Z,16.00
2023-05-01T23:44:47.910Z,13.10
2023-05-01T23:49:54.148Z,13.80
2023-05-01T23:54:55.504Z,14.80
2023-05-01T23:59:56.888Z,16.40
